createdAt,value
2022-09-03T00:04:44.269Z,96932.25
2022-09-03T00:10:10.486Z,96934.81
2022-09-03T00:15:34.711Z,96934.47
2022-09-03T00:20:59.579Z,96946.13
2022-09-03T00:26:28.789Z,96942.88
2022-09-03T00:31:57.204Z,96942.88
2022-09-03T00:37:17.869Z,96948.34
2022-09-03T00:43:15.679Z,96942.94
2022-09-03T00:48:57.501Z,96942.47
2022-09-03T00:54:38.326Z,96933.44
2022-09-03T01:00:12.248Z,96928.66
2022-09-03T01:05:46.995Z,96924.91
2022-09-03T01:11:23.247Z,96917.19
2022-09-03T01:17:10.752Z,96917.84
2022-09-03T01:22:50.316Z,96910.28
2022-09-03T01:28:20.632Z,96910.78
2022-09-03T01:33:44.967Z,96914.97
2022-09-03T01:39:10.566Z,96915.81
2022-09-03T01:44:40.670Z,96921.03
2022-09-03T01:50:34.777Z,96910.81
2022-09-03T01:56:25.912Z,96910.94
2022-09-03T02:01:50.798Z,96911.56
2022-09-03T02:07:11.593Z,96920.88
2022-09-03T02:12:34.996Z,96915.63
2022-09-03T02:18:02.217Z,96918.91
2022-09-03T02:23:27.517Z,96911.81
2022-09-03T02:28:50.035Z,96921.84
2022-09-03T02:34:10.603Z,96926.28
2022-09-03T02:39:32.104Z,96928.91
2022-09-03T02:45:09.444Z,96927.38
2022-09-03T02:50:30.201Z,96922.38
2022-09-03T02:55:50.994Z,96915.75
2022-09-03T03:01:11.839Z,96906.41
2022-09-03T03:06:40.600Z,96906.56
2022-09-03T03:12:01.383Z,96917.09
2022-09-03T03:17:21.946Z,96922.69
2022-09-03T03:22:42.548Z,96914.00
2022-09-03T03:28:05.218Z,96916.25
2022-09-03T03:33:25.736Z,96916.38
2022-09-03T03:38:46.751Z,96912.31
2022-09-03T03:44:08.814Z,96917.00
2022-09-03T03:49:29.717Z,96917.91
2022-09-03T03:54:50.581Z,96917.00
2022-09-03T04:00:12.958Z,96914.03
2022-09-03T04:05:38.759Z,96905.59
2022-09-03T04:11:02.784Z,96895.44
2022-09-03T04:16:28.233Z,96896.88
2022-09-03T04:21:48.823Z,96897.56
2022-09-03T04:27:09.431Z,96902.06
2022-09-03T04:32:48.800Z,96898.47
2022-09-03T04:38:13.448Z,96898.59
2022-09-03T04:43:34.442Z,96891.94
2022-09-03T04:48:55.528Z,96877.63
2022-09-03T04:54:16.150Z,96870.69
2022-09-03T04:59:36.947Z,96883.94
2022-09-03T05:04:57.698Z,96886.69
2022-09-03T05:10:20.563Z,96902.25
2022-09-03T05:15:45.494Z,96907.50
2022-09-03T05:21:09.021Z,96913.69
2022-09-03T05:26:32.306Z,96914.25
2022-09-03T05:31:53.293Z,96905.28
2022-09-03T05:37:14.241Z,96906.13
2022-09-03T05:42:38.011Z,96905.47
2022-09-03T05:48:02.813Z,96911.84
2022-09-03T05:53:23.655Z,96914.81
2022-09-03T05:58:50.024Z,96926.63
2022-09-03T06:04:13.769Z,96927.97
2022-09-03T06:09:34.839Z,96918.41
2022-09-03T06:14:55.516Z,96923.66
2022-09-03T06:20:17.321Z,96925.81
2022-09-03T06:25:37.882Z,96928.97
2022-09-03T06:30:59.774Z,96931.63
2022-09-03T06:36:22.740Z,96922.50
2022-09-03T06:41:44.916Z,96914.19
2022-09-03T06:47:05.834Z,96923.94
2022-09-03T06:52:26.904Z,96919.97
2022-09-03T06:57:48.568Z,96913.44
2022-09-03T07:03:13.638Z,96917.56
2022-09-03T07:08:36.044Z,96911.88
2022-09-03T07:13:58.231Z,96914.75
2022-09-03T07:19:19.007Z,96913.13
2022-09-03T07:24:39.812Z,96910.00
2022-09-03T07:30:00.471Z,96912.22
2022-09-03T07:35:21.678Z,96914.44
2022-09-03T07:40:42.258Z,96912.75
2022-09-03T07:46:03.212Z,96921.47
2022-09-03T07:51:27.884Z,96933.63
2022-09-03T07:56:48.827Z,96928.28
2022-09-03T08:02:10.142Z,96928.13
2022-09-03T08:07:31.289Z,96925.59
2022-09-03T08:12:52.215Z,96936.19
2022-09-03T08:18:13.997Z,96930.97
2022-09-03T08:23:38.046Z,96934.72
2022-09-03T08:28:59.459Z,96942.81
2022-09-03T08:34:20.823Z,96939.59
2022-09-03T08:39:41.763Z,96935.28
2022-09-03T08:45:08.396Z,96933.38
2022-09-03T08:50:37.390Z,96932.38
2022-09-03T08:56:11.209Z,96931.75
2022-09-03T09:01:55.226Z,96917.84
2022-09-03T09:07:21.516Z,96924.94
2022-09-03T09:12:46.497Z,96923.84
2022-09-03T09:18:19.466Z,96926.38
2022-09-03T09:23:47.801Z,96920.41
2022-09-03T09:29:11.461Z,96921.75
2022-09-03T09:34:37.573Z,96921.03
2022-09-03T09:40:00.904Z,96925.00
2022-09-03T09:45:23.318Z,96909.47
2022-09-03T09:50:44.763Z,96906.94
2022-09-03T09:56:05.892Z,96900.09
2022-09-03T10:01:30.429Z,96903.56
2022-09-03T10:07:03.420Z,96905.69
2022-09-03T10:12:34.835Z,96898.44
2022-09-03T10:18:01.251Z,96895.19
2022-09-03T10:23:28.405Z,96894.94
2022-09-03T10:28:55.913Z,96896.59
2022-09-03T10:34:57.238Z,96893.66
2022-09-03T10:40:42.707Z,96887.06
2022-09-03T10:46:27.854Z,96886.44
2022-09-03T10:51:52.856Z,96888.56
2022-09-03T10:57:31.735Z,96882.31
2022-09-03T11:03:07.809Z,96879.34
2022-09-03T11:09:06.356Z,96868.59
2022-09-03T11:14:46.966Z,96875.69
2022-09-03T11:20:20.686Z,96868.06
2022-09-03T11:25:54.780Z,96872.75
2022-09-03T11:31:32.541Z,96863.06
2022-09-03T11:37:06.184Z,96865.78
2022-09-03T11:42:46.314Z,96871.91
2022-09-03T11:48:36.395Z,96873.59
2022-09-03T11:54:03.633Z,96864.19
2022-09-03T11:59:26.483Z,96854.22
2022-09-03T12:05:25.887Z,96853.44
2022-09-03T12:11:09.799Z,96851.66
2022-09-03T12:16:40.729Z,96857.97
2022-09-03T12:22:04.270Z,96854.06
2022-09-03T12:27:27.667Z,96839.63
2022-09-03T12:32:48.940Z,96833.53
2022-09-03T12:38:18.333Z,96839.44
2022-09-03T12:43:40.796Z,96849.63
2022-09-03T12:55:06.402Z,96834.25
2022-09-03T13:00:30.643Z,96833.22
2022-09-03T13:05:57.298Z,96816.72
2022-09-03T13:11:23.186Z,96817.56
2022-09-03T13:16:46.744Z,96817.44
2022-09-03T13:22:38.828Z,96809.28
2022-09-03T13:28:11.921Z,96804.22
2022-09-03T13:33:40.776Z,96800.09
2022-09-03T13:39:16.613Z,96794.16
2022-09-03T13:44:46.844Z,96799.69
2022-09-03T13:50:27.211Z,96798.91
2022-09-03T13:55:52.991Z,96799.09
2022-09-03T14:01:22.572Z,96786.88
2022-09-03T14:06:47.071Z,96782.78
2022-09-03T14:12:25.362Z,96767.09
2022-09-03T14:18:15.127Z,96778.31
2022-09-03T14:24:07.099Z,96788.72
2022-09-03T14:29:34.163Z,96782.41
2022-09-03T14:35:19.204Z,96784.81
2022-09-03T14:40:52.316Z,96781.78
2022-09-03T14:46:32.482Z,96780.56
2022-09-03T14:52:03.680Z,96777.72
2022-09-03T14:57:39.488Z,96774.28
2022-09-03T15:03:02.897Z,96768.53
2022-09-03T15:08:36.408Z,96762.63
2022-09-03T15:14:22.514Z,96761.41
2022-09-03T15:20:02.177Z,96764.06
2022-09-03T15:25:52.512Z,96766.09
2022-09-03T15:31:39.204Z,96765.09
2022-09-03T15:37:07.272Z,96766.72
2022-09-03T15:42:30.168Z,96763.47
2022-09-03T15:47:56.318Z,96766.72
2022-09-03T15:53:36.577Z,96754.47
2022-09-03T15:59:07.903Z,96762.03
2022-09-03T16:05:06.022Z,96762.63
2022-09-03T16:10:54.790Z,96770.00
2022-09-03T16:16:56.537Z,96770.78
2022-09-03T16:22:33.240Z,96770.56
2022-09-03T16:28:15.724Z,96754.47
2022-09-03T16:34:05.220Z,96748.97
2022-09-03T16:39:38.165Z,96755.28
2022-09-03T16:45:15.435Z,96758.56
2022-09-03T16:51:04.434Z,96755.28
2022-09-03T16:56:43.254Z,96758.75
2022-09-03T17:02:40.673Z,96755.06
2022-09-03T17:08:40.564Z,96752.03
2022-09-03T17:14:01.392Z,96744.69
2022-09-03T17:19:39.321Z,96751.63
2022-09-03T17:25:05.999Z,96752.81
2022-09-03T17:30:43.115Z,96743.03
2022-09-03T17:36:27.433Z,96755.41
2022-09-03T17:41:54.984Z,96769.81
2022-09-03T17:47:22.108Z,96771.16
2022-09-03T17:52:55.650Z,96776.56
2022-09-03T17:58:39.872Z,96789.56
2022-09-03T18:04:34.220Z,96786.13
2022-09-03T18:10:07.079Z,96790.19
2022-09-03T18:15:37.777Z,96785.28
2022-09-03T18:21:26.380Z,96798.69
2022-09-03T18:27:16.157Z,96805.56
2022-09-03T18:32:55.284Z,96805.56
2022-09-03T18:38:42.716Z,96802.75
2022-09-03T18:44:28.099Z,96803.94
2022-09-03T18:50:32.483Z,96815.91
2022-09-03T18:56:53.977Z,96818.91
2022-09-03T19:02:48.480Z,96816.91
2022-09-03T19:08:38.745Z,96818.28
2022-09-03T19:14:24.612Z,96812.72
2022-09-03T19:20:13.170Z,96815.84
2022-09-03T19:25:52.131Z,96822.22
2022-09-03T19:31:53.965Z,96824.50
2022-09-03T19:37:50.022Z,96831.22
2022-09-03T19:43:57.259Z,96839.69
2022-09-03T19:49:51.614Z,96848.25
2022-09-03T19:55:39.523Z,96850.72
2022-09-03T20:01:19.481Z,96851.91
2022-09-03T20:06:58.457Z,96863.88
2022-09-03T20:12:22.709Z,96864.94
2022-09-03T20:18:06.098Z,96862.03
2022-09-03T20:23:44.943Z,96865.81
2022-09-03T20:29:29.018Z,96872.13
2022-09-03T20:35:04.958Z,96879.06
2022-09-03T20:41:03.786Z,96874.66
2022-09-03T20:46:45.715Z,96874.38
2022-09-03T20:52:18.619Z,96874.72
2022-09-03T20:57:53.569Z,96879.00
2022-09-03T21:03:14.461Z,96876.34
2022-09-03T21:08:53.635Z,96882.44
2022-09-03T21:14:33.568Z,96876.97
2022-09-03T21:20:22.593Z,96884.91
2022-09-03T21:25:53.036Z,96880.53
2022-09-03T21:31:38.515Z,96887.81
2022-09-03T21:37:04.682Z,96893.91
2022-09-03T21:42:31.761Z,96908.03
2022-09-03T21:47:58.969Z,96913.03
2022-09-03T21:53:42.476Z,96917.00
2022-09-03T21:59:41.491Z,96922.38
2022-09-03T22:05:04.384Z,96921.03
2022-09-03T22:10:53.199Z,96922.31
2022-09-03T22:16:33.155Z,96921.75
2022-09-03T22:22:03.071Z,96927.56
2022-09-03T22:27:30.096Z,96927.28
2022-09-03T22:33:22.538Z,96928.22
2022-09-03T22:38:43.249Z,96926.94
2022-09-03T22:44:25.902Z,96935.31
2022-09-03T22:50:29.658Z,96920.28
2022-09-03T22:56:02.410Z,96926.22
2022-09-03T23:01:30.777Z,96930.28
2022-09-03T23:07:02.903Z,96924.66
2022-09-03T23:12:33.399Z,96934.94
2022-09-03T23:18:05.555Z,96939.69
2022-09-03T23:23:31.566Z,96942.75
2022-09-03T23:29:03.450Z,96942.03
2022-09-03T23:34:25.724Z,96943.75
2022-09-03T23:40:04.890Z,96944.56
2022-09-03T23:45:40.781Z,96943.91
2022-09-03T23:51:25.981Z,96944.81
2022-09-03T23:57:03.230Z,96946.84
